createdAt,value
2018-11-05T00:00:50.228Z,13.18
2018-11-05T00:03:25.939Z,13.31
2018-11-05T00:06:01.505Z,13.14
2018-11-05T00:08:37.056Z,12.98
2018-11-05T00:11:12.839Z,13.11
2018-11-05T00:13:48.615Z,13.29
2018-11-05T00:16:24.337Z,13.25
2018-11-05T00:19:00.093Z,13.00
2018-11-05T00:21:35.924Z,13.17
2018-11-05T00:24:11.535Z,13.34
2018-11-05T00:26:47.191Z,13.04
2018-11-05T00:29:22.923Z,13.26
2018-11-05T00:31:58.604Z,13.36
2018-11-05T00:34:34.270Z,13.21
2018-11-05T00:37:10.177Z,13.19
2018-11-05T00:39:45.933Z,13.25
2018-11-05T00:42:27.930Z,13.28
2018-11-05T00:45:04.003Z,13.32
2018-11-05T00:47:39.773Z,13.43
2018-11-05T00:50:17.072Z,13.28
2018-11-05T00:52:54.436Z,13.38
2018-11-05T00:55:34.081Z,13.43
2018-11-05T00:58:09.607Z,13.14
2018-11-05T01:00:45.060Z,13.07
2018-11-05T01:03:20.789Z,13.30
2018-11-05T01:05:56.535Z,13.04
2018-11-05T01:08:32.054Z,12.87
2018-11-05T01:11:07.588Z,12.60
2018-11-05T01:13:43.068Z,12.73
2018-11-05T01:16:18.636Z,12.83
2018-11-05T01:18:54.337Z,12.90
2018-11-05T01:21:29.794Z,13.01
2018-11-05T01:24:05.844Z,13.10
2018-11-05T01:26:43.380Z,13.15
2018-11-05T01:29:18.904Z,13.54
2018-11-05T01:31:54.677Z,13.29
2018-11-05T01:34:30.457Z,13.21
2018-11-05T01:37:06.709Z,12.98
2018-11-05T01:39:42.580Z,12.91
2018-11-05T01:42:18.172Z,12.95
2018-11-05T01:44:53.595Z,13.08
2018-11-05T01:47:29.521Z,13.11
2018-11-05T01:50:06.238Z,13.26
2018-11-05T01:52:42.932Z,13.35
2018-11-05T01:55:28.755Z,13.21
2018-11-05T01:58:04.812Z,13.08
2018-11-05T02:00:40.446Z,12.54
2018-11-05T02:03:15.978Z,12.41
2018-11-05T02:05:51.724Z,12.88
2018-11-05T02:08:27.280Z,13.10
2018-11-05T02:11:02.821Z,12.87
2018-11-05T02:13:38.703Z,12.86
2018-11-05T02:16:14.259Z,12.90
2018-11-05T02:18:49.938Z,13.07
2018-11-05T02:21:25.436Z,13.14
2018-11-05T02:24:00.956Z,12.88
2018-11-05T02:26:36.753Z,12.72
2018-11-05T02:29:12.485Z,12.78
2018-11-05T02:31:47.932Z,12.73
2018-11-05T02:34:23.352Z,12.78
2018-11-05T02:36:58.985Z,12.77
2018-11-05T02:39:34.565Z,12.80
2018-11-05T02:42:10.262Z,12.70
2018-11-05T02:44:45.965Z,12.73
2018-11-05T02:47:22.234Z,12.68
2018-11-05T02:49:57.798Z,12.74
2018-11-05T02:52:33.421Z,12.80
2018-11-05T02:55:09.419Z,12.57
2018-11-05T02:57:49.404Z,12.31
2018-11-05T03:00:34.637Z,12.25
2018-11-05T03:03:10.433Z,12.20
2018-11-05T03:05:46.068Z,12.18
2018-11-05T03:08:21.855Z,12.52
2018-11-05T03:10:57.546Z,12.62
2018-11-05T03:13:33.054Z,12.73
2018-11-05T03:16:08.431Z,12.59
2018-11-05T03:18:44.056Z,12.62
2018-11-05T03:21:19.564Z,12.55
2018-11-05T03:23:55.395Z,12.62
2018-11-05T03:26:31.088Z,12.57
2018-11-05T03:29:07.772Z,12.86
2018-11-05T03:31:43.498Z,12.89
2018-11-05T03:34:19.037Z,12.97
2018-11-05T03:36:54.720Z,12.70
2018-11-05T03:39:30.213Z,12.80
2018-11-05T03:42:06.373Z,12.82
2018-11-05T03:44:41.933Z,12.91
2018-11-05T03:47:17.763Z,12.80
2018-11-05T03:49:53.551Z,12.75
2018-11-05T03:52:29.304Z,12.89
2018-11-05T03:55:05.064Z,12.80
2018-11-05T03:57:40.664Z,12.94
2018-11-05T04:00:33.690Z,13.15
2018-11-05T04:03:09.107Z,12.94
2018-11-05T04:05:45.248Z,13.28
2018-11-05T04:08:20.781Z,13.09
2018-11-05T04:10:56.230Z,13.00
2018-11-05T04:13:31.892Z,13.27
2018-11-05T04:16:07.461Z,13.44
2018-11-05T04:18:43.210Z,13.01
2018-11-05T04:21:18.817Z,12.90
2018-11-05T04:23:54.458Z,12.80
2018-11-05T04:26:29.845Z,12.76
2018-11-05T04:29:05.823Z,12.74
2018-11-05T04:31:41.688Z,12.69
2018-11-05T04:34:17.341Z,12.73
2018-11-05T04:36:52.741Z,12.80
2018-11-05T04:39:28.381Z,12.76
2018-11-05T04:42:03.973Z,12.87
2018-11-05T04:44:39.552Z,12.80
2018-11-05T04:47:15.590Z,12.76
2018-11-05T04:49:51.292Z,12.80
2018-11-05T04:52:26.719Z,12.74
2018-11-05T04:55:02.430Z,12.82
2018-11-05T04:57:38.699Z,12.82
2018-11-05T05:00:27.321Z,12.83
2018-11-05T05:03:03.131Z,12.83
2018-11-05T05:05:38.718Z,12.76
2018-11-05T05:08:14.808Z,12.94
2018-11-05T05:10:50.727Z,12.12
2018-11-05T05:13:26.409Z,12.73
2018-11-05T05:16:01.939Z,12.84
2018-11-05T05:18:37.501Z,12.68
2018-11-05T05:21:13.447Z,12.82
2018-11-05T05:23:49.068Z,12.80
2018-11-05T05:26:24.929Z,12.76
2018-11-05T05:29:00.365Z,12.87
2018-11-05T05:31:35.989Z,12.91
2018-11-05T05:34:11.780Z,12.95
2018-11-05T05:36:47.305Z,12.97
2018-11-05T05:39:23.500Z,13.04
2018-11-05T05:41:58.960Z,13.04
2018-11-05T05:44:34.536Z,12.97
2018-11-05T05:47:10.365Z,13.04
2018-11-05T05:49:46.110Z,12.96
2018-11-05T05:52:21.799Z,13.00
2018-11-05T05:54:57.353Z,12.74
2018-11-05T05:57:33.030Z,12.73
2018-11-05T06:00:11.387Z,12.66
2018-11-05T06:02:52.321Z,12.81
2018-11-05T06:05:35.644Z,12.93
2018-11-05T06:08:11.072Z,13.27
2018-11-05T06:10:46.537Z,13.24
2018-11-05T06:13:22.018Z,13.19
2018-11-05T06:15:57.828Z,13.13
2018-11-05T06:18:33.546Z,12.98
2018-11-05T06:21:09.200Z,12.95
2018-11-05T06:23:45.299Z,13.03
2018-11-05T06:26:20.956Z,12.80
2018-11-05T06:28:56.589Z,12.69
2018-11-05T06:31:32.057Z,12.63
2018-11-05T06:34:07.590Z,12.57
2018-11-05T06:36:43.185Z,12.61
2018-11-05T06:39:18.695Z,12.53
2018-11-05T06:41:54.377Z,12.59
2018-11-05T06:44:30.118Z,10.39
2018-11-05T06:47:06.205Z,12.66
2018-11-05T06:49:41.803Z,12.54
2018-11-05T06:52:17.196Z,12.54
2018-11-05T06:54:52.761Z,12.51
2018-11-05T06:57:28.432Z,12.59
2018-11-05T07:00:05.250Z,12.50
2018-11-05T07:02:40.951Z,12.59
2018-11-05T07:05:26.206Z,12.71
2018-11-05T07:08:02.010Z,12.75
2018-11-05T07:10:37.612Z,12.53
2018-11-05T07:13:13.511Z,12.83
2018-11-05T07:15:49.044Z,12.76
2018-11-05T07:18:24.810Z,12.71
2018-11-05T07:21:00.561Z,12.65
2018-11-05T07:23:36.206Z,12.81
2018-11-05T07:26:11.895Z,12.69
2018-11-05T07:28:47.766Z,12.60
2018-11-05T07:31:23.513Z,12.41
2018-11-05T07:34:00.043Z,12.42
2018-11-05T07:36:35.582Z,12.35
2018-11-05T07:39:12.539Z,12.46
2018-11-05T07:41:48.064Z,12.46
2018-11-05T07:44:23.752Z,12.57
2018-11-05T07:46:59.145Z,12.70
2018-11-05T07:49:35.009Z,12.77
2018-11-05T07:52:10.828Z,12.51
2018-11-05T07:54:46.313Z,12.30
2018-11-05T07:57:21.876Z,12.27
2018-11-05T07:59:57.422Z,12.50
2018-11-05T08:02:32.999Z,12.49
2018-11-05T08:05:09.132Z,12.23
2018-11-05T08:07:46.409Z,12.30
2018-11-05T08:10:31.523Z,12.40
2018-11-05T08:13:06.932Z,12.31
2018-11-05T08:15:42.373Z,12.38
2018-11-05T08:18:17.939Z,12.45
2018-11-05T08:20:53.523Z,12.64
2018-11-05T08:23:29.165Z,12.66
2018-11-05T08:26:04.879Z,12.49
2018-11-05T08:28:40.373Z,12.39
2018-11-05T08:31:15.881Z,12.27
2018-11-05T08:33:51.652Z,12.23
2018-11-05T08:36:27.462Z,12.19
2018-11-05T08:39:03.977Z,12.15
2018-11-05T08:41:40.037Z,12.22
2018-11-05T08:44:15.659Z,12.35
2018-11-05T08:46:51.163Z,12.26
2018-11-05T08:49:27.593Z,12.22
2018-11-05T08:52:03.238Z,12.24
2018-11-05T08:54:38.929Z,12.25
2018-11-05T08:57:14.338Z,12.15
2018-11-05T08:59:49.887Z,12.07
2018-11-05T09:02:25.559Z,12.11
2018-11-05T09:05:01.148Z,12.07
2018-11-05T09:07:36.836Z,12.11
2018-11-05T09:10:12.608Z,12.15
2018-11-05T09:12:53.932Z,12.20
2018-11-05T09:15:30.663Z,12.07
2018-11-05T09:18:06.577Z,12.19
2018-11-05T09:20:42.343Z,12.14
2018-11-05T09:23:18.030Z,12.03
2018-11-05T09:25:53.826Z,12.03
2018-11-05T09:28:29.279Z,11.99
2018-11-05T09:31:04.917Z,11.96
2018-11-05T09:33:40.351Z,11.96
2018-11-05T09:36:16.227Z,11.91
2018-11-05T09:38:51.943Z,11.96
2018-11-05T09:41:27.556Z,12.11
2018-11-05T09:44:03.160Z,12.12
2018-11-05T09:46:38.645Z,12.22
2018-11-05T09:49:14.208Z,12.28
2018-11-05T09:51:49.749Z,12.22
2018-11-05T09:54:25.310Z,12.26
2018-11-05T09:57:00.849Z,12.27
2018-11-05T09:59:37.058Z,12.19
2018-11-05T10:02:12.796Z,12.21
2018-11-05T10:04:48.670Z,12.12
2018-11-05T10:07:24.240Z,12.22
2018-11-05T10:09:59.765Z,12.18
2018-11-05T10:12:35.178Z,12.10
2018-11-05T10:15:12.012Z,12.13
2018-11-05T10:17:53.436Z,12.16
2018-11-05T10:20:30.853Z,12.13
2018-11-05T10:23:06.603Z,12.26
2018-11-05T10:25:42.006Z,12.28
2018-11-05T10:28:17.706Z,12.28
2018-11-05T10:30:53.320Z,12.41
2018-11-05T10:33:29.202Z,12.39
2018-11-05T10:36:05.706Z,12.44
2018-11-05T10:38:41.215Z,12.62
2018-11-05T10:41:17.352Z,12.74
2018-11-05T10:43:52.853Z,12.80
2018-11-05T10:46:28.363Z,12.72
2018-11-05T10:49:03.845Z,12.82
2018-11-05T10:51:39.483Z,12.79
2018-11-05T10:54:15.962Z,12.82
2018-11-05T10:56:51.611Z,12.49
2018-11-05T10:59:27.505Z,12.73
2018-11-05T11:02:08.479Z,12.76
2018-11-05T11:04:44.104Z,12.88
2018-11-05T11:07:19.565Z,12.85
2018-11-05T11:09:55.056Z,12.86
2018-11-05T11:12:30.668Z,12.92
2018-11-05T11:15:07.414Z,12.90
2018-11-05T11:17:43.157Z,12.94
2018-11-05T11:20:25.888Z,12.90
2018-11-05T11:23:01.416Z,12.88
2018-11-05T11:25:44.566Z,12.72
2018-11-05T11:28:20.251Z,12.72
2018-11-05T11:30:56.062Z,12.80
2018-11-05T11:33:31.880Z,12.80
2018-11-05T11:36:07.335Z,12.85
2018-11-05T11:38:43.076Z,12.98
2018-11-05T11:41:18.705Z,12.96
2018-11-05T11:43:54.511Z,12.97
2018-11-05T11:46:30.286Z,12.95
2018-11-05T11:49:06.663Z,12.86
2018-11-05T11:51:42.150Z,12.69
2018-11-05T11:54:17.820Z,12.74
2018-11-05T11:56:53.436Z,12.79
2018-11-05T11:59:29.098Z,12.84
2018-11-05T12:02:10.281Z,12.79
2018-11-05T12:04:46.064Z,12.82
2018-11-05T12:07:21.546Z,12.89
2018-11-05T12:09:56.992Z,12.86
2018-11-05T12:12:32.625Z,12.94
2018-11-05T12:15:08.642Z,12.94
2018-11-05T12:17:50.768Z,12.97
2018-11-05T12:20:30.214Z,13.00
2018-11-05T12:23:06.141Z,13.05
2018-11-05T12:25:41.606Z,13.15
2018-11-05T12:28:17.197Z,13.09
2018-11-05T12:30:52.802Z,13.03
2018-11-05T12:33:28.375Z,12.89
2018-11-05T12:36:04.142Z,12.91
2018-11-05T12:38:39.612Z,13.02
2018-11-05T12:41:15.455Z,13.14
2018-11-05T12:43:50.987Z,13.11
2018-11-05T12:46:26.494Z,13.23
2018-11-05T12:49:01.924Z,13.21
2018-11-05T12:51:37.786Z,13.18
2018-11-05T12:54:13.290Z,13.22
2018-11-05T12:56:49.053Z,13.27
2018-11-05T12:59:24.821Z,13.29
2018-11-05T13:02:00.271Z,13.37
2018-11-05T13:04:35.798Z,13.43
2018-11-05T13:07:11.466Z,13.31
2018-11-05T13:09:47.292Z,13.42
2018-11-05T13:12:23.066Z,13.44
2018-11-05T13:14:58.515Z,13.47
2018-11-05T13:17:34.718Z,13.53
2018-11-05T13:20:22.148Z,13.67
2018-11-05T13:23:03.477Z,13.75
2018-11-05T13:25:38.918Z,13.77
2018-11-05T13:28:14.414Z,14.04
2018-11-05T13:30:50.206Z,13.95
2018-11-05T13:33:25.869Z,13.96
2018-11-05T13:36:01.406Z,13.94
2018-11-05T13:38:37.421Z,13.88
2018-11-05T13:41:13.191Z,13.92
2018-11-05T13:43:48.989Z,13.95
2018-11-05T13:46:24.869Z,14.03
2018-11-05T13:49:01.157Z,14.06
2018-11-05T13:51:36.433Z,14.11
2018-11-05T13:54:12.193Z,14.08
2018-11-05T13:56:47.701Z,14.12
2018-11-05T13:59:23.212Z,14.19
2018-11-05T14:01:58.721Z,14.17
2018-11-05T14:04:34.354Z,14.11
2018-11-05T14:07:10.030Z,14.17
2018-11-05T14:09:45.714Z,14.20
2018-11-05T14:12:21.240Z,14.15
2018-11-05T14:14:56.991Z,14.05
2018-11-05T14:17:32.480Z,14.20
2018-11-05T14:20:09.579Z,14.25
2018-11-05T14:22:53.487Z,14.20
2018-11-05T14:25:35.594Z,14.26
2018-11-05T14:28:11.662Z,14.24
2018-11-05T14:30:47.199Z,14.37
2018-11-05T14:33:22.670Z,14.44
2018-11-05T14:35:58.326Z,14.39
2018-11-05T14:38:34.368Z,14.29
2018-11-05T14:41:10.285Z,14.32
2018-11-05T14:43:45.969Z,14.25
2018-11-05T14:46:21.965Z,14.37
2018-11-05T14:48:57.383Z,14.41
2018-11-05T14:51:33.339Z,14.43
2018-11-05T14:54:09.716Z,14.46
2018-11-05T14:56:45.309Z,14.48
2018-11-05T14:59:21.012Z,14.40
2018-11-05T15:02:02.100Z,14.49
2018-11-05T15:04:37.980Z,14.58
2018-11-05T15:07:13.832Z,14.65
2018-11-05T15:09:49.210Z,14.62
2018-11-05T15:12:25.030Z,14.55
2018-11-05T15:15:00.674Z,14.48
2018-11-05T15:17:36.555Z,14.46
2018-11-05T15:22:58.188Z,14.37
2018-11-05T15:25:33.765Z,14.23
2018-11-05T15:28:09.722Z,14.23
2018-11-05T15:30:45.443Z,14.12
2018-11-05T15:33:20.982Z,14.08
2018-11-05T15:35:56.753Z,14.07
2018-11-05T15:38:32.167Z,14.07
2018-11-05T15:41:08.411Z,14.03
2018-11-05T15:43:44.083Z,13.91
2018-11-05T15:46:19.682Z,13.86
2018-11-05T15:48:55.220Z,13.90
2018-11-05T15:51:31.782Z,13.80
2018-11-05T15:54:07.628Z,13.94
2018-11-05T15:56:43.472Z,13.99
2018-11-05T15:59:19.381Z,14.04
2018-11-05T16:01:54.758Z,13.85
2018-11-05T16:04:30.636Z,13.74
2018-11-05T16:07:06.424Z,13.75
2018-11-05T16:09:41.791Z,13.72
2018-11-05T16:12:17.483Z,13.72
2018-11-05T16:14:53.317Z,13.71
2018-11-05T16:17:29.471Z,13.76
2018-11-05T16:20:06.341Z,13.67
2018-11-05T16:22:41.724Z,13.66
2018-11-05T16:25:27.222Z,13.80
2018-11-05T16:28:02.677Z,13.61
2018-11-05T16:30:38.326Z,13.58
2018-11-05T16:33:14.153Z,13.66
2018-11-05T16:35:50.015Z,12.76
2018-11-05T16:38:25.828Z,13.54
2018-11-05T16:41:01.881Z,13.49
2018-11-05T16:43:37.605Z,13.56
2018-11-05T16:46:13.136Z,13.45
2018-11-05T16:48:48.880Z,13.48
2018-11-05T16:51:24.445Z,13.59
2018-11-05T16:54:00.068Z,13.62
2018-11-05T16:56:36.265Z,13.68
2018-11-05T16:59:12.097Z,13.62
2018-11-05T17:01:48.150Z,13.40
2018-11-05T17:04:23.708Z,13.56
2018-11-05T17:06:59.249Z,13.62
2018-11-05T17:09:34.902Z,13.70
2018-11-05T17:12:10.581Z,13.67
2018-11-05T17:14:45.962Z,12.64
2018-11-05T17:17:21.441Z,13.78
2018-11-05T17:19:57.097Z,13.73
2018-11-05T17:22:32.613Z,13.81
2018-11-05T17:25:09.358Z,13.85
2018-11-05T17:27:48.649Z,13.85
2018-11-05T17:30:33.494Z,13.89
2018-11-05T17:33:09.018Z,13.83
2018-11-05T17:35:44.620Z,13.90
2018-11-05T17:38:20.076Z,13.85
2018-11-05T17:40:55.693Z,13.73
2018-11-05T17:43:31.656Z,13.62
2018-11-05T17:46:07.136Z,13.52
2018-11-05T17:48:42.637Z,13.55
2018-11-05T17:51:18.186Z,13.59
2018-11-05T17:53:53.780Z,13.61
2018-11-05T17:56:30.105Z,13.52
2018-11-05T17:59:06.537Z,13.51
2018-11-05T18:01:42.220Z,13.65
2018-11-05T18:04:18.733Z,13.58
2018-11-05T18:06:54.481Z,13.56
2018-11-05T18:09:30.179Z,13.54
2018-11-05T18:12:05.909Z,13.54
2018-11-05T18:14:41.568Z,13.55
2018-11-05T18:17:17.363Z,13.45
2018-11-05T18:19:53.123Z,13.48
2018-11-05T18:22:28.497Z,13.46
2018-11-05T18:25:04.218Z,13.52
2018-11-05T18:27:39.820Z,13.50
2018-11-05T18:30:24.569Z,13.46
2018-11-05T18:33:00.033Z,13.50
2018-11-05T18:35:35.802Z,13.51
2018-11-05T18:38:11.664Z,13.54
2018-11-05T18:40:47.288Z,13.51
2018-11-05T18:43:23.964Z,13.38
2018-11-05T18:45:59.577Z,13.44
2018-11-05T18:48:35.102Z,13.38
2018-11-05T18:51:10.577Z,13.37
2018-11-05T18:53:46.176Z,13.14
2018-11-05T18:56:21.730Z,13.10
2018-11-05T18:58:57.946Z,13.02
2018-11-05T19:01:35.904Z,13.11
2018-11-05T19:04:11.597Z,13.11
2018-11-05T19:06:47.453Z,13.02
2018-11-05T19:09:23.094Z,13.02
2018-11-05T19:11:58.822Z,12.99
2018-11-05T19:14:34.391Z,12.97
2018-11-05T19:17:09.766Z,12.83
2018-11-05T19:19:45.154Z,12.89
2018-11-05T19:22:21.289Z,12.90
2018-11-05T19:24:57.775Z,12.83
2018-11-05T19:27:33.295Z,12.82
2018-11-05T19:30:14.277Z,12.88
2018-11-05T19:32:58.497Z,12.97
2018-11-05T19:35:35.264Z,12.89
2018-11-05T19:38:10.877Z,12.95
2018-11-05T19:40:46.634Z,12.95
2018-11-05T19:43:22.390Z,12.91
2018-11-05T19:45:58.102Z,12.84
2018-11-05T19:48:34.383Z,12.94
2018-11-05T19:51:12.451Z,12.99
2018-11-05T19:53:48.027Z,13.00
2018-11-05T19:56:24.672Z,13.02
2018-11-05T19:59:00.572Z,12.99
2018-11-05T20:01:37.350Z,13.08
2018-11-05T20:04:13.315Z,13.06
2018-11-05T20:06:49.609Z,12.12
2018-11-05T20:09:25.553Z,13.02
2018-11-05T20:12:01.504Z,12.95
2018-11-05T20:14:37.105Z,13.02
2018-11-05T20:17:12.521Z,13.08
2018-11-05T20:19:47.986Z,12.99
2018-11-05T20:22:23.806Z,12.97
2018-11-05T20:24:59.913Z,13.00
2018-11-05T20:27:35.753Z,13.04
2018-11-05T20:33:00.802Z,12.95
2018-11-05T20:35:41.076Z,12.92
2018-11-05T20:38:17.114Z,13.06
2018-11-05T20:40:52.838Z,13.10
2018-11-05T20:43:28.891Z,12.95
2018-11-05T20:46:05.623Z,13.00
2018-11-05T20:48:41.669Z,13.04
2018-11-05T20:51:17.362Z,13.03
2018-11-05T20:53:53.129Z,13.15
2018-11-05T20:56:28.903Z,13.15
2018-11-05T20:59:04.818Z,13.00
2018-11-05T21:01:40.426Z,13.07
2018-11-05T21:04:16.404Z,13.05
2018-11-05T21:06:53.514Z,13.12
2018-11-05T21:09:29.305Z,13.15
2018-11-05T21:12:05.863Z,13.24
2018-11-05T21:14:42.224Z,13.26
2018-11-05T21:17:17.901Z,13.04
2018-11-05T21:19:53.428Z,13.13
2018-11-05T21:22:29.085Z,13.18
2018-11-05T21:25:05.340Z,13.25
2018-11-05T21:27:41.585Z,13.32
2018-11-05T21:30:32.113Z,13.13
2018-11-05T21:33:07.650Z,13.19
2018-11-05T21:35:50.183Z,13.14
2018-11-05T21:38:25.762Z,13.20
2018-11-05T21:41:01.504Z,13.33
2018-11-05T21:43:37.313Z,13.21
2018-11-05T21:46:13.157Z,13.12
2018-11-05T21:48:48.640Z,13.00
2018-11-05T21:51:24.053Z,12.92
2018-11-05T21:54:00.157Z,12.71
2018-11-05T21:56:36.184Z,12.85
2018-11-05T21:59:11.756Z,12.87
2018-11-05T22:01:47.521Z,12.79
2018-11-05T22:04:23.110Z,12.69
2018-11-05T22:06:58.486Z,12.78
2018-11-05T22:09:34.144Z,12.82
2018-11-05T22:12:09.938Z,12.80
2018-11-05T22:14:45.373Z,12.91
2018-11-05T22:17:21.055Z,12.91
2018-11-05T22:19:56.890Z,12.85
2018-11-05T22:22:33.918Z,13.12
2018-11-05T22:25:10.751Z,13.07
2018-11-05T22:27:46.867Z,13.11
2018-11-05T22:30:22.839Z,13.09
2018-11-05T22:32:58.661Z,13.21
2018-11-05T22:35:34.398Z,13.16
2018-11-05T22:38:10.123Z,12.95
2018-11-05T22:40:46.238Z,13.00
2018-11-05T22:43:21.822Z,13.05
2018-11-05T22:45:57.935Z,12.97
2018-11-05T22:48:33.871Z,13.02
2018-11-05T22:51:09.438Z,12.99
2018-11-05T22:53:45.893Z,13.00
2018-11-05T22:56:22.141Z,12.93
2018-11-05T22:58:57.696Z,12.94
2018-11-05T23:01:38.612Z,12.98
2018-11-05T23:04:14.381Z,12.81
2018-11-05T23:06:51.271Z,12.83
2018-11-05T23:09:26.835Z,12.71
2018-11-05T23:12:02.401Z,12.65
2018-11-05T23:14:38.044Z,12.66
2018-11-05T23:17:13.825Z,12.60
2018-11-05T23:19:49.317Z,12.63
2018-11-05T23:22:24.940Z,12.57
2018-11-05T23:25:00.524Z,12.45
2018-11-05T23:27:40.117Z,12.36
2018-11-05T23:30:31.887Z,12.18
2018-11-05T23:33:07.272Z,12.14
2018-11-05T23:35:42.749Z,12.17
2018-11-05T23:38:18.317Z,12.28
2018-11-05T23:40:53.881Z,12.12
2018-11-05T23:43:29.328Z,11.92
2018-11-05T23:46:04.898Z,12.22
2018-11-05T23:48:40.282Z,12.18
2018-11-05T23:51:15.884Z,12.20
2018-11-05T23:53:51.676Z,12.09
2018-11-05T23:56:27.420Z,12.02
2018-11-05T23:59:03.261Z,12.08
